createdAt,value
2022-11-13T00:01:17.718Z,8.90
2022-11-13T00:03:46.378Z,8.90
2022-11-13T00:06:15.064Z,8.80
2022-11-13T00:08:43.118Z,8.80
2022-11-13T00:11:18.324Z,8.80
2022-11-13T00:13:48.169Z,8.90
2022-11-13T00:16:18.940Z,8.90
2022-11-13T00:18:48.067Z,8.90
2022-11-13T00:21:21.410Z,8.80
2022-11-13T00:23:50.148Z,8.80
2022-11-13T00:26:21.033Z,8.70
2022-11-13T00:28:56.870Z,8.70
2022-11-13T00:31:25.212Z,8.60
2022-11-13T00:36:41.642Z,8.70
2022-11-13T00:39:09.568Z,8.70
2022-11-13T00:41:37.252Z,8.60
2022-11-13T00:44:06.942Z,8.60
2022-11-13T00:46:34.543Z,8.60
2022-11-13T00:49:02.213Z,8.60
2022-11-13T00:51:30.640Z,8.60
2022-11-13T00:53:58.210Z,8.50
2022-11-13T00:56:26.950Z,8.50
2022-11-13T00:58:54.537Z,8.40
2022-11-13T01:01:23.577Z,8.50
2022-11-13T01:03:51.934Z,8.50
2022-11-13T01:06:25.446Z,8.50
2022-11-13T01:08:55.784Z,8.50
2022-11-13T01:11:27.772Z,8.40
2022-11-13T01:13:56.390Z,8.50
2022-11-13T01:16:27.569Z,8.50
2022-11-13T01:18:55.527Z,8.40
2022-11-13T01:21:28.184Z,8.50
2022-11-13T01:23:57.381Z,8.50
2022-11-13T01:26:28.538Z,8.50
2022-11-13T01:28:58.617Z,8.50
2022-11-13T01:31:30.365Z,8.50
2022-11-13T01:33:57.705Z,8.50
2022-11-13T01:36:29.299Z,8.50
2022-11-13T01:38:56.914Z,8.50
2022-11-13T01:41:33.928Z,8.50
2022-11-13T01:44:01.514Z,8.40
2022-11-13T01:46:38.730Z,8.50
2022-11-13T01:49:09.979Z,8.50
2022-11-13T01:51:50.654Z,8.50
2022-11-13T01:54:22.860Z,8.50
2022-11-13T01:56:51.304Z,8.50
2022-11-13T01:59:33.305Z,8.50
2022-11-13T02:02:01.768Z,8.40
2022-11-13T02:04:31.071Z,8.40
2022-11-13T02:07:04.317Z,8.40
2022-11-13T02:09:42.696Z,8.40
2022-11-13T02:12:16.883Z,8.30
2022-11-13T02:14:52.591Z,8.30
2022-11-13T02:17:30.087Z,8.20
2022-11-13T02:20:01.919Z,8.20
2022-11-13T02:22:37.381Z,8.20
2022-11-13T02:25:06.473Z,8.20
2022-11-13T02:27:38.191Z,8.20
2022-11-13T02:30:26.842Z,8.20
2022-11-13T02:32:57.531Z,8.20
2022-11-13T02:35:30.928Z,8.20
2022-11-13T02:38:02.913Z,8.20
2022-11-13T02:40:32.257Z,8.10
2022-11-13T02:43:00.610Z,8.00
2022-11-13T02:45:29.173Z,8.00
2022-11-13T02:48:00.612Z,8.00
2022-11-13T02:50:29.093Z,7.90
2022-11-13T02:52:57.740Z,8.00
2022-11-13T02:55:26.173Z,7.90
2022-11-13T02:57:55.715Z,7.90
2022-11-13T03:00:23.617Z,7.80
2022-11-13T03:02:52.800Z,7.80
2022-11-13T03:05:21.541Z,7.80
2022-11-13T03:07:49.309Z,7.80
2022-11-13T03:10:17.974Z,7.80
2022-11-13T03:12:45.577Z,7.70
2022-11-13T03:15:14.275Z,7.70
2022-11-13T03:17:41.801Z,7.70
2022-11-13T03:20:10.098Z,7.60
2022-11-13T03:22:38.791Z,7.60
2022-11-13T03:25:10.460Z,7.60
2022-11-13T03:27:38.839Z,7.60
2022-11-13T03:30:09.285Z,7.60
2022-11-13T03:32:37.579Z,7.60
2022-11-13T03:35:05.987Z,7.60
2022-11-13T03:37:33.535Z,7.60
2022-11-13T03:40:01.114Z,7.60
2022-11-13T03:42:28.024Z,7.50
2022-11-13T03:44:56.453Z,7.60
2022-11-13T03:47:25.894Z,7.60
2022-11-13T03:49:52.765Z,7.50
2022-11-13T03:52:20.291Z,7.50
2022-11-13T03:54:47.152Z,7.40
2022-11-13T03:57:15.753Z,7.50
2022-11-13T03:59:44.020Z,7.50
2022-11-13T04:02:11.776Z,7.40
2022-11-13T04:04:40.565Z,7.40
2022-11-13T04:07:07.491Z,7.30
2022-11-13T04:09:35.126Z,7.30
2022-11-13T04:12:02.703Z,7.20
2022-11-13T04:14:32.329Z,7.20
2022-11-13T04:16:59.892Z,7.10
2022-11-13T04:19:28.866Z,7.10
2022-11-13T04:21:56.422Z,7.10
2022-11-13T04:24:23.962Z,7.10
2022-11-13T04:26:50.821Z,7.10
2022-11-13T04:29:18.707Z,7.10
2022-11-13T04:31:46.274Z,7.10
2022-11-13T04:34:13.221Z,7.10
2022-11-13T04:36:40.075Z,7.10
2022-11-13T04:39:08.219Z,7.10
2022-11-13T04:41:55.502Z,7.10
2022-11-13T04:44:23.288Z,7.00
2022-11-13T04:46:51.548Z,6.90
2022-11-13T04:49:20.131Z,6.90
2022-11-13T04:51:47.672Z,6.90
2022-11-13T04:54:15.395Z,6.90
2022-11-13T04:56:43.193Z,6.90
2022-11-13T04:59:10.941Z,6.90
2022-11-13T05:01:37.961Z,6.80
2022-11-13T05:04:06.320Z,6.80
2022-11-13T05:06:34.078Z,6.70
2022-11-13T05:09:01.645Z,6.70
2022-11-13T05:11:30.712Z,6.70
2022-11-13T05:14:03.071Z,6.70
2022-11-13T05:16:31.237Z,6.70
2022-11-13T05:18:59.391Z,6.60
2022-11-13T05:21:26.980Z,6.60
2022-11-13T05:23:54.906Z,6.60
2022-11-13T05:26:22.633Z,6.70
2022-11-13T05:28:50.863Z,6.70
2022-11-13T05:31:19.005Z,6.70
2022-11-13T05:33:45.865Z,6.70
2022-11-13T05:36:15.571Z,6.70
2022-11-13T05:38:43.129Z,6.60
2022-11-13T05:41:15.361Z,6.60
2022-11-13T05:43:43.272Z,6.60
2022-11-13T05:46:18.311Z,6.70
2022-11-13T05:48:47.901Z,6.70
2022-11-13T05:51:20.546Z,6.70
2022-11-13T05:53:48.418Z,6.70
2022-11-13T05:56:22.649Z,6.70
2022-11-13T05:58:51.758Z,6.70
2022-11-13T06:01:28.825Z,6.70
2022-11-13T06:03:57.079Z,6.70
2022-11-13T06:06:25.615Z,6.70
2022-11-13T06:08:54.219Z,6.70
2022-11-13T06:11:24.227Z,6.70
2022-11-13T06:13:53.448Z,6.60
2022-11-13T06:16:28.179Z,6.60
2022-11-13T06:19:00.953Z,6.60
2022-11-13T06:21:31.852Z,6.60
2022-11-13T06:24:00.778Z,6.50
2022-11-13T06:26:31.554Z,6.40
2022-11-13T06:29:01.388Z,6.40
2022-11-13T06:31:31.569Z,6.50
2022-11-13T06:34:00.296Z,6.40
2022-11-13T06:36:33.133Z,6.40
2022-11-13T06:39:00.916Z,6.40
2022-11-13T06:41:31.333Z,6.40
2022-11-13T06:44:03.171Z,6.30
2022-11-13T06:46:34.371Z,6.30
2022-11-13T06:49:01.227Z,6.20
2022-11-13T06:51:31.420Z,6.20
2022-11-13T06:53:59.009Z,6.10
2022-11-13T06:56:27.926Z,6.20
2022-11-13T06:58:57.112Z,6.30
2022-11-13T07:01:27.366Z,6.20
2022-11-13T07:03:56.474Z,6.20
2022-11-13T07:06:25.208Z,6.20
2022-11-13T07:08:53.094Z,6.20
2022-11-13T07:11:22.779Z,6.10
2022-11-13T07:13:52.877Z,6.10
2022-11-13T07:16:21.134Z,6.20
2022-11-13T07:18:51.771Z,6.20
2022-11-13T07:21:21.843Z,6.20
2022-11-13T07:25:54.615Z,6.20
2022-11-13T07:28:22.966Z,6.10
2022-11-13T07:30:50.556Z,6.10
2022-11-13T07:33:18.855Z,6.10
2022-11-13T07:35:46.397Z,6.10
2022-11-13T07:38:13.974Z,6.10
2022-11-13T07:40:41.680Z,6.20
2022-11-13T07:43:10.031Z,6.20
2022-11-13T07:45:37.921Z,6.20
2022-11-13T07:48:05.277Z,6.10
2022-11-13T07:50:36.373Z,6.20
2022-11-13T07:53:10.344Z,6.20
2022-11-13T07:55:38.037Z,6.30
2022-11-13T07:58:06.573Z,6.30
2022-11-13T08:00:35.995Z,6.30
2022-11-13T08:03:16.899Z,6.20
2022-11-13T08:05:46.195Z,6.20
2022-11-13T08:08:15.119Z,6.30
2022-11-13T08:10:43.036Z,6.40
2022-11-13T08:13:11.164Z,6.40
2022-11-13T08:15:39.429Z,6.40
2022-11-13T08:18:06.912Z,6.60
2022-11-13T08:20:35.203Z,6.60
2022-11-13T08:23:04.675Z,6.50
2022-11-13T08:25:36.826Z,6.50
2022-11-13T08:28:08.757Z,6.40
2022-11-13T08:30:42.928Z,6.50
2022-11-13T08:33:11.191Z,6.50
2022-11-13T08:35:38.776Z,6.40
2022-11-13T08:38:09.052Z,6.40
2022-11-13T08:40:37.377Z,6.50
2022-11-13T08:43:05.650Z,6.60
2022-11-13T08:45:34.660Z,6.60
2022-11-13T08:48:04.397Z,6.70
2022-11-13T08:50:34.193Z,6.80
2022-11-13T08:53:02.515Z,6.80
2022-11-13T08:55:32.441Z,6.90
2022-11-13T08:58:03.212Z,6.90
2022-11-13T09:00:32.674Z,6.90
2022-11-13T09:03:00.774Z,7.00
2022-11-13T09:05:30.388Z,7.00
2022-11-13T09:07:59.972Z,7.00
2022-11-13T09:10:28.279Z,7.10
2022-11-13T09:13:04.012Z,7.10
2022-11-13T09:15:32.740Z,7.20
2022-11-13T09:18:02.990Z,7.20
2022-11-13T09:20:31.672Z,7.30
2022-11-13T09:23:05.714Z,7.40
2022-11-13T09:25:38.209Z,7.50
2022-11-13T09:28:07.489Z,7.50
2022-11-13T09:30:37.594Z,7.50
2022-11-13T09:33:05.902Z,7.60
2022-11-13T09:35:34.696Z,7.60
2022-11-13T09:38:11.867Z,7.70
2022-11-13T09:41:05.710Z,7.80
2022-11-13T09:43:45.009Z,7.90
2022-11-13T09:46:19.441Z,8.30
2022-11-13T09:48:55.853Z,8.30
2022-11-13T09:51:27.656Z,8.50
2022-11-13T09:53:55.760Z,8.50
2022-11-13T09:56:26.154Z,8.60
2022-11-13T09:59:22.429Z,8.70
2022-11-13T10:02:18.174Z,8.80
2022-11-13T10:05:01.446Z,8.90
2022-11-13T10:07:41.709Z,9.00
2022-11-13T10:10:23.874Z,9.10
2022-11-13T10:12:57.002Z,9.10
2022-11-13T10:15:24.810Z,9.20
2022-11-13T10:18:01.752Z,9.30
2022-11-13T10:20:34.405Z,9.40
2022-11-13T10:23:14.944Z,9.50
2022-11-13T10:25:44.783Z,9.50
2022-11-13T10:28:48.933Z,9.50
2022-11-13T10:31:12.587Z,9.60
2022-11-13T10:33:40.395Z,9.70
2022-11-13T10:36:15.568Z,9.80
2022-11-13T10:38:50.138Z,9.90
2022-11-13T10:41:20.998Z,10.10
2022-11-13T10:43:56.511Z,10.10
2022-11-13T10:46:32.045Z,10.40
2022-11-13T10:49:21.760Z,10.40
2022-11-13T10:52:01.222Z,10.60
2022-11-13T10:54:32.404Z,10.70
2022-11-13T10:57:05.079Z,10.90
2022-11-13T10:59:44.725Z,11.00
2022-11-13T11:02:18.983Z,11.30
2022-11-13T11:04:48.003Z,11.60
2022-11-13T11:07:21.920Z,11.70
2022-11-13T11:09:51.707Z,11.80
2022-11-13T11:12:30.290Z,11.90
2022-11-13T11:15:11.437Z,12.20
2022-11-13T11:17:46.081Z,12.20
2022-11-13T11:20:42.869Z,12.20
2022-11-13T11:23:41.817Z,12.40
2022-11-13T11:26:18.786Z,12.50
2022-11-13T11:29:03.565Z,12.60
2022-11-13T11:31:53.760Z,12.50
2022-11-13T11:34:54.937Z,12.40
2022-11-13T11:37:35.732Z,12.50
2022-11-13T11:40:20.866Z,12.60
2022-11-13T11:43:09.419Z,12.60
2022-11-13T11:45:45.293Z,12.60
2022-11-13T11:48:16.452Z,12.70
2022-11-13T11:50:53.796Z,12.60
2022-11-13T11:53:28.900Z,12.60
2022-11-13T11:56:05.324Z,12.40
2022-11-13T11:58:54.702Z,12.40
2022-11-13T12:01:43.069Z,12.20
2022-11-13T12:04:36.212Z,12.00
2022-11-13T12:07:40.447Z,11.90
2022-11-13T12:10:28.297Z,11.70
2022-11-13T12:13:12.026Z,11.80
2022-11-13T12:16:05.871Z,11.90
2022-11-13T12:18:46.119Z,12.10
2022-11-13T12:21:24.303Z,12.30
2022-11-13T12:24:09.661Z,12.50
2022-11-13T12:26:47.372Z,12.70
2022-11-13T12:29:33.025Z,12.70
2022-11-13T12:32:29.609Z,12.70
2022-11-13T12:35:03.460Z,12.70
2022-11-13T12:37:46.346Z,12.60
2022-11-13T12:40:30.365Z,12.50
2022-11-13T12:43:15.842Z,12.40
2022-11-13T12:45:54.453Z,12.40
2022-11-13T12:48:33.703Z,12.40
2022-11-13T12:51:05.923Z,12.50
2022-11-13T12:54:03.837Z,12.40
2022-11-13T12:56:34.431Z,12.40
2022-11-13T12:59:30.571Z,12.40
2022-11-13T13:02:21.488Z,12.30
2022-11-13T13:05:01.110Z,12.20
2022-11-13T13:07:46.784Z,12.00
2022-11-13T13:10:55.076Z,11.90
2022-11-13T13:13:43.113Z,11.80
2022-11-13T13:16:12.091Z,11.70
2022-11-13T13:18:40.768Z,11.60
2022-11-13T13:21:16.193Z,11.60
2022-11-13T13:23:49.792Z,11.40
2022-11-13T13:26:20.740Z,11.40
2022-11-13T13:28:56.345Z,11.30
2022-11-13T13:31:51.924Z,11.30
2022-11-13T13:34:41.846Z,11.20
2022-11-13T13:37:34.411Z,11.10
2022-11-13T13:40:30.137Z,11.00
2022-11-13T13:43:06.493Z,10.90
2022-11-13T13:45:49.443Z,10.90
2022-11-13T13:48:21.014Z,10.80
2022-11-13T13:50:52.029Z,10.60
2022-11-13T13:53:26.602Z,10.60
2022-11-13T13:55:56.436Z,10.50
2022-11-13T13:58:35.974Z,10.50
2022-11-13T14:01:22.499Z,10.30
2022-11-13T14:04:04.288Z,10.10
2022-11-13T14:06:32.937Z,10.00
2022-11-13T14:09:16.874Z,10.00
2022-11-13T14:11:45.130Z,10.00
2022-11-13T14:14:21.191Z,9.90
2022-11-13T14:16:51.723Z,9.80
2022-11-13T14:19:20.841Z,9.70
2022-11-13T14:21:51.883Z,9.70
2022-11-13T14:24:48.867Z,9.60
2022-11-13T14:27:24.268Z,9.50
2022-11-13T14:30:01.922Z,9.50
2022-11-13T14:32:33.890Z,9.40
2022-11-13T14:35:05.094Z,9.20
2022-11-13T14:37:36.881Z,9.10
2022-11-13T14:40:31.054Z,9.00
2022-11-13T14:43:03.309Z,9.00
2022-11-13T14:45:33.279Z,8.90
2022-11-13T14:48:25.620Z,8.70
2022-11-13T14:50:55.704Z,8.70
2022-11-13T14:53:42.549Z,8.80
2022-11-13T14:56:12.483Z,8.70
2022-11-13T14:58:44.576Z,8.70
2022-11-13T15:01:23.595Z,8.60
2022-11-13T15:03:52.849Z,8.50
2022-11-13T15:06:26.479Z,8.60
2022-11-13T15:08:58.349Z,8.60
2022-11-13T15:11:27.200Z,8.60
2022-11-13T15:14:01.451Z,8.50
2022-11-13T15:16:32.405Z,8.50
2022-11-13T15:19:09.360Z,8.40
2022-11-13T15:21:37.829Z,8.50
2022-11-13T15:24:06.518Z,8.60
2022-11-13T15:26:35.441Z,8.70
2022-11-13T15:29:04.140Z,8.70
2022-11-13T15:31:37.854Z,8.70
2022-11-13T15:34:05.727Z,8.60
2022-11-13T15:36:34.032Z,8.50
2022-11-13T15:39:06.229Z,8.30
2022-11-13T15:41:36.419Z,8.30
2022-11-13T15:44:11.861Z,8.20
2022-11-13T15:46:39.680Z,8.20
2022-11-13T15:49:07.564Z,8.20
2022-11-13T15:51:44.311Z,8.10
2022-11-13T15:54:34.496Z,8.20
2022-11-13T15:57:03.515Z,8.20
2022-11-13T15:59:32.000Z,8.20
2022-11-13T16:01:59.801Z,8.10
2022-11-13T16:04:44.032Z,7.90
2022-11-13T16:07:21.426Z,7.90
2022-11-13T16:09:48.437Z,7.80
2022-11-13T16:12:16.171Z,7.80
2022-11-13T16:14:43.747Z,7.80
2022-11-13T16:17:20.380Z,7.90
2022-11-13T16:19:52.554Z,8.00
2022-11-13T16:22:25.535Z,8.00
2022-11-13T16:24:52.999Z,7.90
2022-11-13T16:27:29.556Z,8.00
2022-11-13T16:30:01.102Z,8.00
2022-11-13T16:32:32.969Z,7.80
2022-11-13T16:35:01.242Z,7.70
2022-11-13T16:37:30.231Z,7.60
2022-11-13T16:39:58.545Z,7.70
2022-11-13T16:42:31.023Z,7.70
2022-11-13T16:44:59.592Z,7.70
2022-11-13T16:47:27.153Z,7.70
2022-11-13T16:49:55.548Z,7.60
2022-11-13T16:52:26.819Z,7.60
2022-11-13T16:54:55.176Z,7.50
2022-11-13T16:57:24.520Z,7.50
2022-11-13T16:59:51.364Z,7.40
2022-11-13T17:02:20.446Z,7.30
2022-11-13T17:04:48.660Z,7.40
2022-11-13T17:07:16.937Z,7.40
2022-11-13T17:09:45.553Z,7.40
2022-11-13T17:12:12.696Z,7.40
2022-11-13T17:14:41.559Z,7.30
2022-11-13T17:17:12.617Z,7.50
2022-11-13T17:19:44.253Z,7.50
2022-11-13T17:22:13.723Z,7.40
2022-11-13T17:24:43.403Z,7.30
2022-11-13T17:27:12.348Z,7.20
2022-11-13T17:29:40.706Z,7.00
2022-11-13T17:32:09.948Z,7.00
2022-11-13T17:34:38.121Z,7.00
2022-11-13T17:37:05.825Z,7.00
2022-11-13T17:39:33.341Z,7.10
2022-11-13T17:42:02.380Z,7.10
2022-11-13T17:44:29.285Z,7.10
2022-11-13T17:46:56.921Z,7.20
2022-11-13T17:49:25.897Z,7.10
2022-11-13T17:51:54.778Z,7.10
2022-11-13T17:54:25.324Z,7.00
2022-11-13T17:56:53.595Z,7.00
2022-11-13T17:59:21.828Z,7.00
2022-11-13T18:01:49.508Z,7.00
2022-11-13T18:04:16.429Z,6.90
2022-11-13T18:06:44.968Z,7.00
2022-11-13T18:09:12.619Z,7.00
2022-11-13T18:11:41.179Z,7.00
2022-11-13T18:14:09.538Z,7.00
2022-11-13T18:16:37.869Z,6.90
2022-11-13T18:19:09.325Z,6.90
2022-11-13T18:21:40.521Z,7.00
2022-11-13T18:24:18.408Z,7.00
2022-11-13T18:26:46.658Z,7.10
2022-11-13T18:29:15.637Z,7.00
2022-11-13T18:31:45.809Z,7.00
2022-11-13T18:34:16.724Z,7.10
2022-11-13T18:36:45.780Z,7.10
2022-11-13T18:39:16.826Z,7.10
2022-11-13T18:41:44.687Z,7.10
2022-11-13T18:44:12.601Z,7.20
2022-11-13T18:46:41.760Z,7.20
2022-11-13T18:49:09.440Z,7.20
2022-11-13T18:51:37.890Z,7.30
2022-11-13T18:54:09.833Z,7.30
2022-11-13T18:56:40.096Z,7.30
2022-11-13T18:59:09.502Z,7.30
2022-11-13T19:01:38.303Z,7.30
2022-11-13T19:04:22.721Z,7.30
2022-11-13T19:06:50.876Z,7.30
2022-11-13T19:09:18.584Z,7.40
2022-11-13T19:11:47.630Z,7.60
2022-11-13T19:14:18.453Z,7.50
2022-11-13T19:16:46.868Z,7.50
2022-11-13T19:19:21.005Z,7.50
2022-11-13T19:21:49.474Z,7.50
2022-11-13T19:24:17.435Z,7.50
2022-11-13T19:26:46.125Z,7.40
2022-11-13T19:29:15.052Z,7.40
2022-11-13T19:31:45.310Z,7.50
2022-11-13T19:34:14.618Z,7.50
2022-11-13T19:36:45.051Z,7.40
2022-11-13T19:39:14.029Z,7.40
2022-11-13T19:41:42.330Z,7.40
2022-11-13T19:44:10.616Z,7.40
2022-11-13T19:46:39.021Z,7.40
2022-11-13T19:49:07.125Z,7.40
2022-11-13T19:51:36.795Z,7.50
2022-11-13T19:54:05.680Z,7.40
2022-11-13T19:56:33.325Z,7.40
2022-11-13T19:59:03.132Z,7.40
2022-11-13T20:01:32.285Z,7.50
2022-11-13T20:04:04.100Z,7.50
2022-11-13T20:06:33.439Z,7.40
2022-11-13T20:09:03.082Z,7.40
2022-11-13T20:11:32.275Z,7.30
2022-11-13T20:14:02.616Z,7.30
2022-11-13T20:16:30.657Z,7.30
2022-11-13T20:18:59.091Z,7.20
2022-11-13T20:21:33.324Z,7.20
2022-11-13T20:24:01.588Z,7.20
2022-11-13T20:26:29.944Z,7.10
2022-11-13T20:28:59.292Z,7.10
2022-11-13T20:31:28.035Z,7.10
2022-11-13T20:33:57.375Z,7.10
2022-11-13T20:36:27.120Z,7.10
2022-11-13T20:38:56.935Z,7.00
2022-11-13T20:41:26.110Z,7.00
2022-11-13T20:44:01.871Z,7.00
2022-11-13T20:46:30.910Z,7.00
2022-11-13T20:48:59.336Z,7.00
2022-11-13T20:51:28.765Z,6.90
2022-11-13T20:53:59.697Z,6.90
2022-11-13T20:56:28.200Z,6.80
2022-11-13T20:58:57.724Z,6.80
2022-11-13T21:01:26.261Z,6.80
2022-11-13T21:03:54.010Z,6.70
2022-11-13T21:06:25.339Z,6.70
2022-11-13T21:08:56.284Z,6.60
2022-11-13T21:11:25.538Z,6.60
2022-11-13T21:13:55.436Z,6.60
2022-11-13T21:16:23.836Z,6.60
2022-11-13T21:18:52.173Z,6.50
2022-11-13T21:21:22.174Z,6.50
2022-11-13T21:23:50.924Z,6.50
2022-11-13T21:26:19.574Z,6.50
2022-11-13T21:28:47.891Z,6.50
2022-11-13T21:31:20.489Z,6.40
2022-11-13T21:33:50.155Z,6.40
2022-11-13T21:36:20.039Z,6.40
2022-11-13T21:38:53.637Z,6.30
2022-11-13T21:41:27.153Z,6.30
2022-11-13T21:43:59.448Z,6.30
2022-11-13T21:46:31.736Z,6.30
2022-11-13T21:49:06.294Z,6.20
2022-11-13T21:51:37.573Z,6.20
2022-11-13T21:54:06.560Z,6.10
2022-11-13T21:56:37.307Z,6.20
2022-11-13T21:59:07.129Z,6.10
2022-11-13T22:01:38.562Z,6.20
2022-11-13T22:04:07.081Z,6.20
2022-11-13T22:06:41.855Z,6.20
2022-11-13T22:09:18.298Z,6.20
2022-11-13T22:11:46.225Z,6.20
2022-11-13T22:14:14.787Z,6.20
2022-11-13T22:16:45.624Z,6.20
2022-11-13T22:19:17.247Z,6.20
2022-11-13T22:21:46.825Z,6.20
2022-11-13T22:24:15.689Z,6.20
2022-11-13T22:26:50.750Z,6.30
2022-11-13T22:29:19.686Z,6.30
2022-11-13T22:31:49.068Z,6.30
2022-11-13T22:34:18.290Z,6.30
2022-11-13T22:36:47.143Z,6.30
2022-11-13T22:39:16.750Z,6.30
2022-11-13T22:41:45.003Z,6.30
2022-11-13T22:44:14.349Z,6.30
2022-11-13T22:46:41.953Z,6.30
2022-11-13T22:49:12.180Z,6.30
2022-11-13T22:51:41.788Z,6.30
2022-11-13T22:54:11.885Z,6.30
2022-11-13T22:56:41.459Z,6.30
2022-11-13T22:59:12.209Z,6.30
2022-11-13T23:01:43.039Z,6.30
2022-11-13T23:04:13.741Z,6.30
2022-11-13T23:06:43.310Z,6.40
2022-11-13T23:09:12.974Z,6.40
2022-11-13T23:11:42.373Z,6.40
2022-11-13T23:14:13.743Z,6.40
2022-11-13T23:16:42.924Z,6.40
2022-11-13T23:19:12.976Z,6.40
2022-11-13T23:21:40.712Z,6.40
2022-11-13T23:24:11.144Z,6.40
2022-11-13T23:26:40.717Z,6.40
2022-11-13T23:29:10.441Z,6.50
2022-11-13T23:31:39.649Z,6.50
2022-11-13T23:34:09.026Z,6.50
2022-11-13T23:36:37.272Z,6.50
2022-11-13T23:39:05.516Z,6.50
2022-11-13T23:41:33.932Z,6.60
2022-11-13T23:44:11.031Z,6.60
2022-11-13T23:46:39.236Z,6.70
2022-11-13T23:49:08.261Z,6.70
2022-11-13T23:51:36.541Z,6.70
2022-11-13T23:54:05.001Z,6.70
2022-11-13T23:56:34.102Z,6.70
2022-11-13T23:59:02.377Z,6.80
